Карточка аэропорта UOOO

Внимание!
Информация на этой странице в стадии наполнения.
Если вы не увидели какой-то информации, или заметили неточность - пожалуйста сообщите нам!
Спасибо!
Команда RU-STAFF
Название аэропортаАлыкель
Название аэропорта (англ.)Alykel
Превышение574 ft. (175 m.)
Координаты69°19.02', 87°19.02'
Высота перехода1200m
Эшелон переходаQFE>744:FL60;744>QFE>717:FL70;717>QFE:FL80
Коды ответчика5401-5427
Зона ОрВДКрасноярск РПИ (UNKL)
Данные METARUOOO 230900Z 19009MPS 6000 -SN BLSN BKN018 M20/M22 Q1027 R19/810360 NOSIG RMK QFE754/1005
Проноз погоды (TAF)UOOO 230741Z 2309/2409 18010G20MPS 1000 -SN BLSN BKN016 TEMPO 2309/2315 0400 -SN BLSN BECMG 2315/2318 2700 -SN BLSN TEMPO 2318/2403 1400 -SN BLSN TEMPO 2403/2409 6000 -SN BLSN
NOTAMshow/hide NOTAM
AWOS   TABLE

Информация о ВПП

ВПП Длина ВПП (м.) Покрытие Курс ВПП Частота ILS
013430Бетон13109.5
193430Бетон193110.3

Диспетчерские позиции

Позывной Наименование органа УВД Частота
UOOO_GNDНорильск - Руление121.700
UOOO_TWRНорильск - Старт118.300
UOOO_R_APPНорильск - Круг120.400



Спутниковое изображение